sensor_id;sensor_type;location;lat;lon;timestamp;pressure;altitude;pressure_sealevel;temperature;humidity
50250;BME280;36133;42.522;27.456;2022-07-06T00:01:31;101040.03;;;21.49;60.85
50250;BME280;36133;42.522;27.456;2022-07-06T00:03:56;101129.03;;;22.20;59.96
50250;BME280;36133;42.522;27.456;2022-07-06T00:06:22;100902.41;;;20.57;60.75
50250;BME280;36133;42.522;27.456;2022-07-06T00:08:48;101121.69;;;21.71;61.20
50250;BME280;36133;42.522;27.456;2022-07-06T00:11:14;100777.25;;;19.72;61.07
50250;BME280;36133;42.522;27.456;2022-07-06T00:13:40;100852.75;;;19.79;61.20
50250;BME280;36133;42.522;27.456;2022-07-06T00:16:05;100877.59;;;19.89;61.59
50250;BME280;36133;42.522;27.456;2022-07-06T00:18:31;101030.81;;;21.22;60.27
50250;BME280;36133;42.522;27.456;2022-07-06T00:20:57;101120.41;;;21.95;59.61
50250;BME280;36133;42.522;27.456;2022-07-06T00:23:22;101117.91;;;22.32;57.85
50250;BME280;36133;42.522;27.456;2022-07-06T00:25:48;101022.00;;;21.75;57.87
50250;BME280;36133;42.522;27.456;2022-07-06T00:28:14;101122.25;;;22.28;58.04
50250;BME280;36133;42.522;27.456;2022-07-06T00:30:40;101103.78;;;21.68;59.14
50250;BME280;36133;42.522;27.456;2022-07-06T00:33:06;100895.09;;;20.17;59.61
50250;BME280;36133;42.522;27.456;2022-07-06T00:35:32;100806.75;;;19.81;59.44
50250;BME280;36133;42.522;27.456;2022-07-06T00:37:58;101123.34;;;21.55;61.38
50250;BME280;36133;42.522;27.456;2022-07-06T00:40:23;101106.56;;;21.51;61.96
50250;BME280;36133;42.522;27.456;2022-07-06T00:42:49;101094.22;;;21.20;63.53
50250;BME280;36133;42.522;27.456;2022-07-06T00:45:16;100836.44;;;19.73;63.27
50250;BME280;36133;42.522;27.456;2022-07-06T00:47:42;100999.09;;;20.64;63.14
50250;BME280;36133;42.522;27.456;2022-07-06T00:50:10;101043.50;;;20.77;63.33
50250;BME280;36133;42.522;27.456;2022-07-06T00:52:47;101099.16;;;21.06;64.12
50250;BME280;36133;42.522;27.456;2022-07-06T00:55:15;101033.78;;;20.87;64.43
50250;BME280;36133;42.522;27.456;2022-07-06T00:57:41;101092.94;;;21.11;64.00
50250;BME280;36133;42.522;27.456;2022-07-06T01:00:09;101087.75;;;21.26;64.03
50250;BME280;36133;42.522;27.456;2022-07-06T01:02:36;101032.31;;;20.96;63.67
50250;BME280;36133;42.522;27.456;2022-07-06T01:05:03;100860.63;;;19.76;64.33
50250;BME280;36133;42.522;27.456;2022-07-06T01:07:30;101003.34;;;20.88;64.24
50250;BME280;36133;42.522;27.456;2022-07-06T01:09:56;100841.88;;;20.30;61.94
50250;BME280;36133;42.522;27.456;2022-07-06T01:12:22;100855.19;;;20.55;61.90
50250;BME280;36133;42.522;27.456;2022-07-06T01:14:49;100814.78;;;20.33;61.58
50250;BME280;36133;42.522;27.456;2022-07-06T01:17:15;100867.41;;;20.47;61.99
50250;BME280;36133;42.522;27.456;2022-07-06T01:19:41;101081.66;;;21.24;63.11
50250;BME280;36133;42.522;27.456;2022-07-06T01:22:06;101078.00;;;21.35;62.22
50250;BME280;36133;42.522;27.456;2022-07-06T01:24:35;100653.94;;;18.41;62.63
50250;BME280;36133;42.522;27.456;2022-07-06T01:27:02;100717.13;;;18.91;61.37
50250;BME280;36133;42.522;27.456;2022-07-06T01:29:27;101080.06;;;21.12;61.44
50250;BME280;36133;42.522;27.456;2022-07-06T01:31:53;100691.91;;;18.78;61.66
50250;BME280;36133;42.522;27.456;2022-07-06T01:34:19;101058.75;;;21.02;61.53
50250;BME280;36133;42.522;27.456;2022-07-06T01:36:45;100877.00;;;20.16;61.35
50250;BME280;36133;42.522;27.456;2022-07-06T01:39:11;100854.97;;;20.11;61.38
50250;BME280;36133;42.522;27.456;2022-07-06T01:41:37;100891.19;;;20.13;62.37
50250;BME280;36133;42.522;27.456;2022-07-06T01:44:04;101046.69;;;21.03;62.32
50250;BME280;36133;42.522;27.456;2022-07-06T01:46:30;100790.53;;;19.23;62.22
50250;BME280;36133;42.522;27.456;2022-07-06T01:48:56;101083.25;;;20.92;62.25
50250;BME280;36133;42.522;27.456;2022-07-06T01:51:22;100784.53;;;19.38;61.47
50250;BME280;36133;42.522;27.456;2022-07-06T01:53:48;101026.56;;;20.52;63.75
50250;BME280;36133;42.522;27.456;2022-07-06T01:56:13;100866.00;;;19.71;62.45
50250;BME280;36133;42.522;27.456;2022-07-06T01:58:39;100960.84;;;20.00;64.60
50250;BME280;36133;42.522;27.456;2022-07-06T02:01:10;100991.66;;;20.07;64.25
50250;BME280;36133;42.522;27.456;2022-07-06T02:03:36;100984.69;;;20.00;64.95
50250;BME280;36133;42.522;27.456;2022-07-06T02:06:03;101020.06;;;20.01;65.03
50250;BME280;36133;42.522;27.456;2022-07-06T02:08:28;100777.19;;;18.39;64.99
50250;BME280;36133;42.522;27.456;2022-07-06T02:10:54;101077.59;;;20.53;64.23
50250;BME280;36133;42.522;27.456;2022-07-06T02:13:20;100982.81;;;20.17;62.85
50250;BME280;36133;42.522;27.456;2022-07-06T02:15:45;101080.75;;;20.22;63.79
50250;BME280;36133;42.522;27.456;2022-07-06T02:18:11;101043.19;;;20.34;63.17
50250;BME280;36133;42.522;27.456;2022-07-06T02:20:36;100657.78;;;17.70;64.51
50250;BME280;36133;42.522;27.456;2022-07-06T02:23:02;100892.00;;;19.45;63.92
50250;BME280;36133;42.522;27.456;2022-07-06T02:25:28;100975.69;;;19.52;66.07
50250;BME280;36133;42.522;27.456;2022-07-06T02:27:53;101088.91;;;20.05;66.41
50250;BME280;36133;42.522;27.456;2022-07-06T02:30:19;100999.38;;;19.70;65.62
50250;BME280;36133;42.522;27.456;2022-07-06T02:32:44;101079.94;;;20.21;65.46
50250;BME280;36133;42.522;27.456;2022-07-06T02:35:10;100995.56;;;19.48;65.30
50250;BME280;36133;42.522;27.456;2022-07-06T02:37:37;100943.53;;;19.48;64.34
50250;BME280;36133;42.522;27.456;2022-07-06T02:40:03;100843.78;;;19.03;63.69
50250;BME280;36133;42.522;27.456;2022-07-06T02:42:29;100808.31;;;18.50;64.49
50250;BME280;36133;42.522;27.456;2022-07-06T02:44:55;100890.81;;;19.52;63.65
50250;BME280;36133;42.522;27.456;2022-07-06T02:47:21;101053.19;;;20.68;63.08
50250;BME280;36133;42.522;27.456;2022-07-06T02:49:46;101014.13;;;20.21;63.60
50250;BME280;36133;42.522;27.456;2022-07-06T02:52:12;101004.38;;;20.25;63.99
50250;BME280;36133;42.522;27.456;2022-07-06T02:54:38;101043.78;;;20.36;64.85
50250;BME280;36133;42.522;27.456;2022-07-06T02:57:03;101061.16;;;20.53;64.91
50250;BME280;36133;42.522;27.456;2022-07-06T02:59:29;100689.25;;;18.19;65.55
50250;BME280;36133;42.522;27.456;2022-07-06T03:01:54;100863.25;;;19.19;67.04
50250;BME280;36133;42.522;27.456;2022-07-06T03:04:20;100971.75;;;19.72;67.78
50250;BME280;36133;42.522;27.456;2022-07-06T03:06:45;100752.72;;;18.68;67.49
50250;BME280;36133;42.522;27.456;2022-07-06T03:09:11;100682.59;;;18.38;66.91
50250;BME280;36133;42.522;27.456;2022-07-06T03:11:36;101065.31;;;20.84;66.86
50250;BME280;36133;42.522;27.456;2022-07-06T03:14:05;101072.63;;;20.95;67.34
50250;BME280;36133;42.522;27.456;2022-07-06T03:16:31;101065.19;;;21.58;64.88
50250;BME280;36133;42.522;27.456;2022-07-06T03:18:57;100687.31;;;18.78;66.64
50250;BME280;36133;42.522;27.456;2022-07-06T03:21:26;100724.19;;;19.16;66.10
50250;BME280;36133;42.522;27.456;2022-07-06T03:23:52;101064.94;;;21.26;66.55
50250;BME280;36133;42.522;27.456;2022-07-06T03:26:18;100999.72;;;21.72;63.46
50250;BME280;36133;42.522;27.456;2022-07-06T03:28:43;100803.38;;;19.91;64.58
50250;BME280;36133;42.522;27.456;2022-07-06T03:31:09;100939.00;;;20.05;65.95
50250;BME280;36133;42.522;27.456;2022-07-06T03:33:34;101075.28;;;21.07;63.64
50250;BME280;36133;42.522;27.456;2022-07-06T03:36:00;100995.47;;;20.06;64.96
50250;BME280;36133;42.522;27.456;2022-07-06T03:38:26;101092.38;;;20.81;64.36
50250;BME280;36133;42.522;27.456;2022-07-06T03:40:51;101105.13;;;21.65;61.65
50250;BME280;36133;42.522;27.456;2022-07-06T03:43:17;101093.84;;;21.00;63.44
50250;BME280;36133;42.522;27.456;2022-07-06T03:45:43;101100.16;;;20.84;63.96
50250;BME280;36133;42.522;27.456;2022-07-06T03:48:09;101003.22;;;20.50;63.54
50250;BME280;36133;42.522;27.456;2022-07-06T03:50:34;100805.78;;;19.19;63.97
50250;BME280;36133;42.522;27.456;2022-07-06T03:53:00;101001.34;;;21.00;61.49
50250;BME280;36133;42.522;27.456;2022-07-06T03:55:26;101079.19;;;21.95;60.87
50250;BME280;36133;42.522;27.456;2022-07-06T03:57:51;100842.88;;;20.24;61.60
50250;BME280;36133;42.522;27.456;2022-07-06T04:00:17;100790.66;;;19.28;63.18
50250;BME280;36133;42.522;27.456;2022-07-06T04:02:43;100938.63;;;20.42;62.97
50250;BME280;36133;42.522;27.456;2022-07-06T04:05:08;101080.06;;;21.62;61.73
50250;BME280;36133;42.522;27.456;2022-07-06T04:07:34;101075.25;;;21.69;61.45
50250;BME280;36133;42.522;27.456;2022-07-06T04:10:00;100997.22;;;21.70;59.90
50250;BME280;36133;42.522;27.456;2022-07-06T04:12:26;100867.28;;;21.75;57.73
50250;BME280;36133;42.522;27.456;2022-07-06T04:14:51;101069.81;;;23.48;56.09
50250;BME280;36133;42.522;27.456;2022-07-06T04:17:17;100877.72;;;22.00;56.69
50250;BME280;36133;42.522;27.456;2022-07-06T04:20:01;100900.41;;;22.71;55.56
50250;BME280;36133;42.522;27.456;2022-07-06T04:22:27;100861.81;;;22.02;56.38
50250;BME280;36133;42.522;27.456;2022-07-06T04:24:53;100835.69;;;21.72;56.98
50250;BME280;36133;42.522;27.456;2022-07-06T04:27:18;101077.69;;;23.29;56.59
50250;BME280;36133;42.522;27.456;2022-07-06T04:29:44;100986.31;;;22.46;57.44
50250;BME280;36133;42.522;27.456;2022-07-06T04:32:09;100941.66;;;22.12;58.33
50250;BME280;36133;42.522;27.456;2022-07-06T04:34:35;100896.72;;;22.28;57.29
50250;BME280;36133;42.522;27.456;2022-07-06T04:37:00;100938.97;;;22.44;57.70
50250;BME280;36133;42.522;27.456;2022-07-06T04:39:26;101074.78;;;23.14;58.05
50250;BME280;36133;42.522;27.456;2022-07-06T04:41:51;101065.31;;;23.68;57.19
50250;BME280;36133;42.522;27.456;2022-07-06T04:44:17;100991.00;;;23.47;55.87
50250;BME280;36133;42.522;27.456;2022-07-06T04:46:43;100917.91;;;23.81;54.65
50250;BME280;36133;42.522;27.456;2022-07-06T04:49:08;100912.50;;;24.27;53.25
50250;BME280;36133;42.522;27.456;2022-07-06T04:51:34;100923.25;;;24.23;54.18
50250;BME280;36133;42.522;27.456;2022-07-06T04:53:59;101009.72;;;25.31;53.14
50250;BME280;36133;42.522;27.456;2022-07-06T04:56:25;100878.56;;;25.13;52.11
50250;BME280;36133;42.522;27.456;2022-07-06T04:58:51;101073.00;;;25.63;52.94
50250;BME280;36133;42.522;27.456;2022-07-06T05:01:16;101070.16;;;25.98;51.86
50250;BME280;36133;42.522;27.456;2022-07-06T05:03:42;100943.75;;;25.04;52.17
50250;BME280;36133;42.522;27.456;2022-07-06T05:06:07;100800.75;;;23.79;52.93
50250;BME280;36133;42.522;27.456;2022-07-06T05:08:33;101055.88;;;25.40;52.72
50250;BME280;36133;42.522;27.456;2022-07-06T05:11:00;100769.88;;;24.43;50.88
50250;BME280;36133;42.522;27.456;2022-07-06T05:13:26;100668.41;;;23.58;51.27
50250;BME280;36133;42.522;27.456;2022-07-06T05:15:51;101073.47;;;26.00;51.92
50250;BME280;36133;42.522;27.456;2022-07-06T05:18:17;100928.72;;;25.51;50.91
50250;BME280;36133;42.522;27.456;2022-07-06T05:20:43;101060.44;;;27.15;48.94
50250;BME280;36133;42.522;27.456;2022-07-06T05:23:09;101066.91;;;26.95;49.15
50250;BME280;36133;42.522;27.456;2022-07-06T05:25:35;100871.88;;;25.89;48.50
50250;BME280;36133;42.522;27.456;2022-07-06T05:28:02;100719.75;;;25.05;48.08
50250;BME280;36133;42.522;27.456;2022-07-06T05:30:28;101063.22;;;27.15;47.95
50250;BME280;36133;42.522;27.456;2022-07-06T05:32:54;101056.03;;;27.43;47.54
50250;BME280;36133;42.522;27.456;2022-07-06T05:35:19;100879.00;;;26.44;47.56
50250;BME280;36133;42.522;27.456;2022-07-06T05:37:45;100807.72;;;25.37;47.73
50250;BME280;36133;42.522;27.456;2022-07-06T05:40:11;101012.97;;;26.48;49.12
50250;BME280;36133;42.522;27.456;2022-07-06T05:42:36;101063.91;;;27.31;48.37
50250;BME280;36133;42.522;27.456;2022-07-06T05:45:02;101064.94;;;27.40;47.40
50250;BME280;36133;42.522;27.456;2022-07-06T05:47:29;100864.75;;;25.78;48.78
50250;BME280;36133;42.522;27.456;2022-07-06T05:50:14;100790.56;;;25.46;47.89
50250;BME280;36133;42.522;27.456;2022-07-06T05:52:41;100881.94;;;26.19;48.83
50250;BME280;36133;42.522;27.456;2022-07-06T05:55:09;100981.91;;;26.56;49.67
50250;BME280;36133;42.522;27.456;2022-07-06T05:57:35;101072.97;;;27.70;48.30
50250;BME280;36133;42.522;27.456;2022-07-06T06:00:01;100878.53;;;26.27;49.56
50250;BME280;36133;42.522;27.456;2022-07-06T06:02:26;101074.81;;;27.51;49.39
50250;BME280;36133;42.522;27.456;2022-07-06T06:04:53;101073.59;;;26.94;50.72
50250;BME280;36133;42.522;27.456;2022-07-06T06:07:18;100774.38;;;25.19;49.60
50250;BME280;36133;42.522;27.456;2022-07-06T06:09:45;101043.22;;;27.18;48.08
50250;BME280;36133;42.522;27.456;2022-07-06T06:12:11;100879.78;;;26.50;47.31
50250;BME280;36133;42.522;27.456;2022-07-06T06:14:36;101050.75;;;28.18;45.77
50250;BME280;36133;42.522;27.456;2022-07-06T06:17:02;100970.78;;;28.20;43.99
50250;BME280;36133;42.522;27.456;2022-07-06T06:19:34;100974.09;;;28.22;43.87
50250;BME280;36133;42.522;27.456;2022-07-06T06:22:03;100983.78;;;29.46;42.05
50250;BME280;36133;42.522;27.456;2022-07-06T06:24:28;101009.66;;;30.16;40.78
50250;BME280;36133;42.522;27.456;2022-07-06T06:26:54;101060.44;;;30.99;39.62
50250;BME280;36133;42.522;27.456;2022-07-06T06:29:28;101047.44;;;31.16;38.49
50250;BME280;36133;42.522;27.456;2022-07-06T06:31:59;100780.44;;;30.51;36.55
50250;BME280;36133;42.522;27.456;2022-07-06T06:34:35;100854.84;;;31.61;35.23
50250;BME280;36133;42.522;27.456;2022-07-06T06:37:03;100886.16;;;32.15;35.15
50250;BME280;36133;42.522;27.456;2022-07-06T06:39:29;100897.97;;;31.95;33.31
50250;BME280;36133;42.522;27.456;2022-07-06T06:41:55;101043.25;;;31.50;36.65
50250;BME280;36133;42.522;27.456;2022-07-06T06:44:21;101035.13;;;31.62;34.97
50250;BME280;36133;42.522;27.456;2022-07-06T06:46:49;100538.94;;;29.41;33.79
50250;BME280;36133;42.522;27.456;2022-07-06T06:49:15;100948.84;;;31.74;35.41
50250;BME280;36133;42.522;27.456;2022-07-06T06:51:41;100888.19;;;31.58;34.42
50250;BME280;36133;42.522;27.456;2022-07-06T06:54:07;100658.84;;;30.78;33.70
50250;BME280;36133;42.522;27.456;2022-07-06T06:56:32;101027.69;;;32.54;35.56
50250;BME280;36133;42.522;27.456;2022-07-06T06:58:58;100868.78;;;31.04;36.32
50250;BME280;36133;42.522;27.456;2022-07-06T07:01:24;100969.97;;;31.27;37.07
50250;BME280;36133;42.522;27.456;2022-07-06T07:03:50;100880.69;;;30.43;37.24
50250;BME280;36133;42.522;27.456;2022-07-06T07:06:17;100712.69;;;29.44;36.97
50250;BME280;36133;42.522;27.456;2022-07-06T07:08:42;101034.88;;;32.47;34.86
50250;BME280;36133;42.522;27.456;2022-07-06T07:11:08;100749.25;;;30.41;35.96
50250;BME280;36133;42.522;27.456;2022-07-06T07:13:34;100618.16;;;30.68;33.28
50250;BME280;36133;42.522;27.456;2022-07-06T07:16:00;100899.72;;;33.03;32.34
50250;BME280;36133;42.522;27.456;2022-07-06T07:18:25;100990.50;;;33.70;32.21
50250;BME280;36133;42.522;27.456;2022-07-06T07:20:53;100686.41;;;32.64;31.18
50250;BME280;36133;42.522;27.456;2022-07-06T07:23:22;100761.91;;;32.94;30.79
50250;BME280;36133;42.522;27.456;2022-07-06T07:25:48;100781.19;;;33.16;30.93
50250;BME280;36133;42.522;27.456;2022-07-06T07:28:13;100703.66;;;33.26;28.84
50250;BME280;36133;42.522;27.456;2022-07-06T07:30:41;100906.97;;;34.22;30.32
50250;BME280;36133;42.522;27.456;2022-07-06T07:33:10;101034.81;;;34.56;30.27
50250;BME280;36133;42.522;27.456;2022-07-06T07:35:36;100778.91;;;33.90;29.22
50250;BME280;36133;42.522;27.456;2022-07-06T07:38:02;100810.84;;;34.09;29.51
50250;BME280;36133;42.522;27.456;2022-07-06T07:40:28;100820.59;;;33.62;29.77
50250;BME280;36133;42.522;27.456;2022-07-06T07:42:53;101051.28;;;34.79;29.99
50250;BME280;36133;42.522;27.456;2022-07-06T07:45:42;101036.44;;;36.14;28.16
50250;BME280;36133;42.522;27.456;2022-07-06T07:48:08;100731.97;;;34.07;28.35
50250;BME280;36133;42.522;27.456;2022-07-06T07:50:36;100667.63;;;35.05;26.04
50250;BME280;36133;42.522;27.456;2022-07-06T07:53:07;100777.78;;;37.84;23.65
50250;BME280;36133;42.522;27.456;2022-07-06T07:55:44;100802.94;;;35.27;26.28
50250;BME280;36133;42.522;27.456;2022-07-06T07:58:10;100718.19;;;36.01;25.54
50250;BME280;36133;42.522;27.456;2022-07-06T08:00:39;100622.84;;;35.93;24.85
50250;BME280;36133;42.522;27.456;2022-07-06T08:03:04;101028.28;;;39.40;23.42
50250;BME280;36133;42.522;27.456;2022-07-06T08:05:30;100878.97;;;36.94;25.17
50250;BME280;36133;42.522;27.456;2022-07-06T08:07:56;100902.66;;;38.07;23.52
50250;BME280;36133;42.522;27.456;2022-07-06T08:10:28;100792.94;;;36.93;24.09
50250;BME280;36133;42.522;27.456;2022-07-06T08:12:57;100887.91;;;36.41;25.94
50250;BME280;36133;42.522;27.456;2022-07-06T08:15:23;100619.13;;;34.19;26.58
50250;BME280;36133;42.522;27.456;2022-07-06T08:17:48;101047.59;;;37.31;25.36
50250;BME280;36133;42.522;27.456;2022-07-06T08:20:14;100876.13;;;36.35;25.26
50250;BME280;36133;42.522;27.456;2022-07-06T08:22:41;100862.09;;;36.51;24.89
50250;BME280;36133;42.522;27.456;2022-07-06T08:25:08;101005.72;;;38.24;24.40
50250;BME280;36133;42.522;27.456;2022-07-06T08:27:33;100865.00;;;37.45;23.70
50250;BME280;36133;42.522;27.456;2022-07-06T08:29:59;100887.06;;;37.43;23.20
50250;BME280;36133;42.522;27.456;2022-07-06T08:32:26;100725.19;;;37.18;23.24
50250;BME280;36133;42.522;27.456;2022-07-06T08:34:51;100655.16;;;37.51;22.42
50250;BME280;36133;42.522;27.456;2022-07-06T08:37:18;101009.06;;;40.22;21.93
50250;BME280;36133;42.522;27.456;2022-07-06T08:39:46;100907.88;;;37.39;23.39
50250;BME280;36133;42.522;27.456;2022-07-06T08:42:12;100636.00;;;36.20;22.69
50250;BME280;36133;42.522;27.456;2022-07-06T08:44:40;100782.41;;;38.15;21.92
50250;BME280;36133;42.522;27.456;2022-07-06T08:47:06;100886.88;;;36.89;23.29
50250;BME280;36133;42.522;27.456;2022-07-06T08:49:33;101030.53;;;39.31;22.19
50250;BME280;36133;42.522;27.456;2022-07-06T08:52:06;100644.34;;;37.53;21.09
50250;BME280;36133;42.522;27.456;2022-07-06T08:54:42;100867.78;;;37.61;22.23
50250;BME280;36133;42.522;27.456;2022-07-06T08:57:10;100794.19;;;37.12;22.13
50250;BME280;36133;42.522;27.456;2022-07-06T08:59:39;100702.91;;;36.78;22.02
50250;BME280;36133;42.522;27.456;2022-07-06T09:02:05;100868.75;;;37.34;22.17
50250;BME280;36133;42.522;27.456;2022-07-06T09:04:32;100640.81;;;36.20;22.10
50250;BME280;36133;42.522;27.456;2022-07-06T09:07:05;100592.59;;;36.49;22.30
50250;BME280;36133;42.522;27.456;2022-07-06T09:09:37;100757.56;;;36.92;22.93
50250;BME280;36133;42.522;27.456;2022-07-06T09:12:03;100925.53;;;38.22;23.59
50250;BME280;36133;42.522;27.456;2022-07-06T09:14:29;100892.72;;;38.13;22.62
50250;BME280;36133;42.522;27.456;2022-07-06T09:17:03;100891.25;;;38.58;21.11
50250;BME280;36133;42.522;27.456;2022-07-06T09:19:34;100752.81;;;37.82;22.16
50250;BME280;36133;42.522;27.456;2022-07-06T09:22:01;100786.75;;;37.19;22.26
50250;BME280;36133;42.522;27.456;2022-07-06T09:24:26;100659.47;;;35.40;24.41
50250;BME280;36133;42.522;27.456;2022-07-06T09:26:55;100886.47;;;37.69;23.97
50250;BME280;36133;42.522;27.456;2022-07-06T09:29:28;100517.09;;;35.53;23.85
50250;BME280;36133;42.522;27.456;2022-07-06T09:32:02;100701.22;;;36.42;24.13
50250;BME280;36133;42.522;27.456;2022-07-06T09:34:42;101030.06;;;39.25;22.84
50250;BME280;36133;42.522;27.456;2022-07-06T09:37:11;100679.03;;;37.77;21.74
50250;BME280;36133;42.522;27.456;2022-07-06T09:39:40;101026.63;;;40.94;20.97
50250;BME280;36133;42.522;27.456;2022-07-06T09:42:06;100903.56;;;38.50;22.38
50250;BME280;36133;42.522;27.456;2022-07-06T09:44:40;100614.56;;;35.84;23.50
50250;BME280;36133;42.522;27.456;2022-07-06T09:47:15;100608.03;;;36.90;23.58
50250;BME280;36133;42.522;27.456;2022-07-06T09:49:40;101025.19;;;39.95;23.33
50250;BME280;36133;42.522;27.456;2022-07-06T09:52:10;100696.78;;;38.00;23.00
50250;BME280;36133;42.522;27.456;2022-07-06T09:54:40;100589.00;;;37.42;23.41
50250;BME280;36133;42.522;27.456;2022-07-06T09:57:07;100961.66;;;39.59;23.03
50250;BME280;36133;42.522;27.456;2022-07-06T09:59:34;100891.41;;;38.65;23.76
50250;BME280;36133;42.522;27.456;2022-07-06T10:02:03;100597.50;;;37.65;23.32
50250;BME280;36133;42.522;27.456;2022-07-06T10:04:37;100720.78;;;38.13;23.90
50250;BME280;36133;42.522;27.456;2022-07-06T10:07:04;100617.75;;;36.77;24.10
50250;BME280;36133;42.522;27.456;2022-07-06T10:09:31;100915.06;;;39.49;23.33
50250;BME280;36133;42.522;27.456;2022-07-06T10:12:01;100601.69;;;37.51;22.92
50250;BME280;36133;42.522;27.456;2022-07-06T10:14:29;100833.31;;;38.84;23.27
50250;BME280;36133;42.522;27.456;2022-07-06T10:16:57;101016.81;;;40.85;23.00
50250;BME280;36133;42.522;27.456;2022-07-06T10:19:31;100723.56;;;38.10;23.86
50250;BME280;36133;42.522;27.456;2022-07-06T10:22:02;100637.84;;;37.69;23.78
50250;BME280;36133;42.522;27.456;2022-07-06T10:24:29;100891.97;;;40.23;23.75
50250;BME280;36133;42.522;27.456;2022-07-06T10:27:01;100636.19;;;38.10;23.59
50250;BME280;36133;42.522;27.456;2022-07-06T10:29:45;100787.19;;;36.58;26.63
50250;BME280;36133;42.522;27.456;2022-07-06T10:32:19;100845.88;;;37.54;26.08
50250;BME280;36133;42.522;27.456;2022-07-06T10:34:53;100858.69;;;39.30;24.27
50250;BME280;36133;42.522;27.456;2022-07-06T10:37:27;100837.88;;;38.92;25.04
50250;BME280;36133;42.522;27.456;2022-07-06T10:39:53;100819.78;;;38.51;25.39
50250;BME280;36133;42.522;27.456;2022-07-06T10:42:42;100763.56;;;37.42;25.07
50250;BME280;36133;42.522;27.456;2022-07-06T10:45:19;101001.72;;;40.17;24.61
50250;BME280;36133;42.522;27.456;2022-07-06T10:47:47;100630.28;;;39.21;23.49
50250;BME280;36133;42.522;27.456;2022-07-06T10:50:16;100999.22;;;41.02;23.69
50250;BME280;36133;42.522;27.456;2022-07-06T10:52:58;100678.06;;;39.07;23.38
50250;BME280;36133;42.522;27.456;2022-07-06T10:55:36;100890.94;;;40.08;24.06
50250;BME280;36133;42.522;27.456;2022-07-06T10:58:03;100762.19;;;37.90;25.69
50250;BME280;36133;42.522;27.456;2022-07-06T11:00:49;100991.94;;;41.05;23.77
50250;BME280;36133;42.522;27.456;2022-07-06T11:03:45;100988.75;;;41.98;23.39
50250;BME280;36133;42.522;27.456;2022-07-06T11:06:19;100833.31;;;40.50;22.58
50250;BME280;36133;42.522;27.456;2022-07-06T11:09:04;100568.34;;;38.45;24.41
50250;BME280;36133;42.522;27.456;2022-07-06T11:14:05;100943.44;;;41.47;23.68
50250;BME280;36133;42.522;27.456;2022-07-06T11:17:19;100781.16;;;40.47;23.44
50250;BME280;36133;42.522;27.456;2022-07-06T11:19:32;100904.63;;;41.54;21.66
50250;BME280;36133;42.522;27.456;2022-07-06T11:22:18;100972.63;;;40.43;24.56
50250;BME280;36133;42.522;27.456;2022-07-06T11:24:45;100654.03;;;36.82;26.05
50250;BME280;36133;42.522;27.456;2022-07-06T11:27:29;100719.81;;;38.94;24.61
50250;BME280;36133;42.522;27.456;2022-07-06T11:29:58;100570.28;;;37.72;25.99
50250;BME280;36133;42.522;27.456;2022-07-06T11:32:27;100748.78;;;40.04;24.19
50250;BME280;36133;42.522;27.456;2022-07-06T11:34:53;100956.63;;;40.28;25.72
50250;BME280;36133;42.522;27.456;2022-07-06T11:37:19;100558.50;;;37.05;26.39
50250;BME280;36133;42.522;27.456;2022-07-06T11:39:46;100571.53;;;36.59;27.08
50250;BME280;36133;42.522;27.456;2022-07-06T11:42:19;100642.38;;;39.18;25.00
50250;BME280;36133;42.522;27.456;2022-07-06T11:44:46;100948.69;;;41.45;24.86
50250;BME280;36133;42.522;27.456;2022-07-06T11:47:15;100948.47;;;42.33;24.09
50250;BME280;36133;42.522;27.456;2022-07-06T11:49:41;100637.03;;;39.76;24.26
50250;BME280;36133;42.522;27.456;2022-07-06T11:52:16;100806.25;;;39.55;26.28
50250;BME280;36133;42.522;27.456;2022-07-06T11:54:42;100603.72;;;38.95;25.93
50250;BME280;36133;42.522;27.456;2022-07-06T11:57:13;100706.72;;;37.55;28.88
50250;BME280;36133;42.522;27.456;2022-07-06T11:59:41;100817.72;;;40.70;25.60
50250;BME280;36133;42.522;27.456;2022-07-06T12:02:13;100602.75;;;40.22;24.56
50250;BME280;36133;42.522;27.456;2022-07-06T12:04:41;100820.84;;;39.34;27.39
50250;BME280;36133;42.522;27.456;2022-07-06T12:07:09;100817.75;;;38.09;28.66
50250;BME280;36133;42.522;27.456;2022-07-06T12:09:38;100908.53;;;38.18;28.39
50250;BME280;36133;42.522;27.456;2022-07-06T12:12:10;100933.00;;;39.60;27.76
50250;BME280;36133;42.522;27.456;2022-07-06T12:14:39;100550.72;;;37.57;26.21
50250;BME280;36133;42.522;27.456;2022-07-06T12:17:15;100929.63;;;40.64;24.76
50250;BME280;36133;42.522;27.456;2022-07-06T12:19:41;100491.53;;;38.25;24.04
50250;BME280;36133;42.522;27.456;2022-07-06T12:22:08;100763.75;;;39.18;25.56
50250;BME280;36133;42.522;27.456;2022-07-06T12:24:37;100764.25;;;38.12;26.21
50250;BME280;36133;42.522;27.456;2022-07-06T12:27:19;100925.97;;;37.73;27.46
50250;BME280;36133;42.522;27.456;2022-07-06T12:29:47;100680.31;;;38.45;24.74
50250;BME280;36133;42.522;27.456;2022-07-06T12:32:20;100844.47;;;39.75;24.88
50250;BME280;36133;42.522;27.456;2022-07-06T12:35:08;100758.88;;;40.05;24.45
50250;BME280;36133;42.522;27.456;2022-07-06T12:37:35;100503.91;;;37.71;24.61
50250;BME280;36133;42.522;27.456;2022-07-06T12:40:01;100675.78;;;39.76;23.84
50250;BME280;36133;42.522;27.456;2022-07-06T12:42:27;100848.28;;;40.20;24.83
50250;BME280;36133;42.522;27.456;2022-07-06T12:44:53;100527.69;;;39.40;23.48
50250;BME280;36133;42.522;27.456;2022-07-06T12:47:23;100900.75;;;41.73;23.41